createdAt,value
2023-01-30T00:03:11.095Z,100562.25
2023-01-30T00:08:15.220Z,100560.53
2023-01-30T00:13:18.994Z,100563.94
2023-01-30T00:18:22.962Z,100569.84
2023-01-30T00:23:28.001Z,100568.16
2023-01-30T00:28:32.191Z,100594.47
2023-01-30T00:33:39.479Z,100597.00
2023-01-30T00:38:43.360Z,100598.69
2023-01-30T00:44:06.127Z,100609.72
2023-01-30T00:49:10.036Z,100609.72
2023-01-30T00:54:14.040Z,100608.88
2023-01-30T00:59:18.617Z,100621.56
2023-01-30T01:04:22.681Z,100639.38
2023-01-30T01:09:26.504Z,100648.72
2023-01-30T01:14:30.805Z,100646.16
2023-01-30T01:19:36.730Z,100665.69
2023-01-30T01:24:40.767Z,100677.56
2023-01-30T01:29:45.495Z,100683.50
2023-01-30T01:34:49.223Z,100698.78
2023-01-30T01:40:11.573Z,100681.88
2023-01-30T01:45:27.300Z,100708.97
2023-01-30T01:50:40.641Z,100702.16
2023-01-30T01:55:48.028Z,100722.53
2023-01-30T02:00:53.163Z,100716.56
2023-01-30T02:06:01.625Z,100734.41
2023-01-30T02:11:30.516Z,100727.59
2023-01-30T02:16:34.607Z,100738.63
2023-01-30T02:22:30.622Z,100747.09
2023-01-30T02:27:53.332Z,100762.38
2023-01-30T02:33:23.247Z,100762.34
2023-01-30T02:38:50.293Z,100784.44
2023-01-30T02:44:26.667Z,100798.84
2023-01-30T02:49:43.460Z,100798.84
2023-01-30T02:54:47.345Z,100809.88
2023-01-30T03:00:02.065Z,100825.16
2023-01-30T03:05:43.743Z,100820.03
2023-01-30T03:11:05.137Z,100814.94
2023-01-30T03:16:16.469Z,100838.66
2023-01-30T03:21:20.901Z,100870.06
2023-01-30T03:26:33.942Z,100861.53
2023-01-30T03:31:37.925Z,100870.88
2023-01-30T03:36:43.149Z,100859.88
2023-01-30T03:41:47.236Z,100895.53
2023-01-30T03:46:54.700Z,100898.03
2023-01-30T03:52:00.588Z,100891.19
2023-01-30T03:57:04.746Z,100912.44
2023-01-30T04:02:09.585Z,100926.03
2023-01-30T04:07:13.679Z,100935.34
2023-01-30T04:12:18.834Z,100930.22
2023-01-30T04:17:30.082Z,100939.56
2023-01-30T04:22:57.235Z,100959.09
2023-01-30T04:28:03.551Z,100963.31
2023-01-30T04:33:12.733Z,100966.69
2023-01-30T04:38:16.526Z,100983.66
2023-01-30T04:43:22.996Z,100986.22
2023-01-30T04:48:45.379Z,100987.03
2023-01-30T04:53:49.347Z,101006.56
2023-01-30T04:58:53.353Z,101007.41
2023-01-30T05:03:59.235Z,100989.59
2023-01-30T05:09:03.756Z,101008.34
2023-01-30T05:14:07.814Z,101030.38
2023-01-30T05:19:14.661Z,101034.59
2023-01-30T05:24:18.453Z,101037.97
2023-01-30T05:29:22.571Z,101035.38
2023-01-30T05:34:26.653Z,101050.69
2023-01-30T05:39:30.695Z,101070.22
2023-01-30T05:44:34.557Z,101076.97
2023-01-30T05:49:38.288Z,101076.13
2023-01-30T05:54:42.284Z,101087.22
2023-01-30T05:59:46.060Z,101100.84
2023-01-30T06:04:49.893Z,101100.00
2023-01-30T06:09:53.869Z,101118.72
2023-01-30T06:14:57.727Z,101134.06
2023-01-30T06:20:01.684Z,101140.00
2023-01-30T06:25:07.843Z,101159.56
2023-01-30T06:30:12.433Z,101161.25
2023-01-30T06:35:16.765Z,101173.19
2023-01-30T06:40:21.279Z,101186.00
2023-01-30T06:45:25.255Z,101191.94
2023-01-30T06:50:31.094Z,101194.50
2023-01-30T06:55:36.762Z,101199.63
2023-01-30T07:00:43.262Z,101212.34
2023-01-30T07:05:48.561Z,101197.91
2023-01-30T07:10:53.197Z,101221.72
2023-01-30T07:15:56.939Z,101233.66
2023-01-30T07:21:00.984Z,101237.06
2023-01-30T07:26:06.477Z,101246.44
2023-01-30T07:31:10.293Z,101257.50
2023-01-30T07:36:15.137Z,101254.91
2023-01-30T07:41:18.902Z,101259.22
2023-01-30T07:46:23.083Z,101277.09
2023-01-30T07:51:26.971Z,101282.22
2023-01-30T07:56:31.474Z,101292.44
2023-01-30T08:01:35.441Z,101305.22
2023-01-30T08:06:40.114Z,101304.38
2023-01-30T08:11:44.000Z,101260.22
2023-01-30T08:16:48.119Z,101318.03
2023-01-30T08:21:51.991Z,101339.31
2023-01-30T08:26:55.946Z,101345.31
2023-01-30T08:32:00.910Z,101358.94
2023-01-30T08:37:04.965Z,101370.03
2023-01-30T08:42:08.765Z,101372.56
2023-01-30T08:47:12.785Z,101370.84
2023-01-30T08:52:16.583Z,101387.88
2023-01-30T08:57:22.063Z,101392.09
2023-01-30T09:02:26.086Z,101401.47
2023-01-30T09:07:30.003Z,101404.84
2023-01-30T09:12:34.057Z,101416.75
2023-01-30T09:17:39.137Z,101421.84
2023-01-30T09:22:43.131Z,101434.59
2023-01-30T09:27:50.029Z,101421.81
2023-01-30T09:32:54.243Z,101439.66
2023-01-30T09:37:59.775Z,101458.31
2023-01-30T09:43:14.812Z,101466.81
2023-01-30T09:48:30.517Z,101465.94
2023-01-30T09:53:46.263Z,101475.28
2023-01-30T09:59:00.101Z,101486.31
2023-01-30T10:04:19.977Z,101476.97
2023-01-30T10:09:36.031Z,101490.53
2023-01-30T10:14:58.144Z,101491.38
2023-01-30T10:20:17.052Z,101509.19
2023-01-30T10:25:28.802Z,101499.81
2023-01-30T10:30:34.663Z,101505.69
2023-01-30T10:35:43.500Z,101528.59
2023-01-30T10:40:57.993Z,101527.69
2023-01-30T10:46:33.054Z,101535.34
2023-01-30T10:51:55.799Z,101539.56
2023-01-30T10:57:20.977Z,101539.53
2023-01-30T11:02:31.870Z,101548.00
2023-01-30T11:07:35.873Z,101547.16
2023-01-30T11:12:39.642Z,101555.59
2023-01-30T11:17:46.020Z,101544.44
2023-01-30T11:23:06.691Z,101558.06
2023-01-30T11:28:18.386Z,101563.91
2023-01-30T11:33:23.931Z,101540.81
2023-01-30T11:38:36.702Z,101568.84
2023-01-30T11:43:41.189Z,101565.31
2023-01-30T11:49:32.460Z,101593.34
2023-01-30T11:54:42.452Z,101595.03
2023-01-30T11:59:57.495Z,101600.00
2023-01-30T12:05:09.355Z,101601.66
2023-01-30T12:10:42.100Z,101616.00
2023-01-30T12:15:50.850Z,101617.53
2023-01-30T12:21:01.724Z,101625.88
2023-01-30T12:26:34.590Z,101629.19
2023-01-30T12:31:48.327Z,101631.56
2023-01-30T12:37:21.983Z,101633.19
2023-01-30T12:42:48.475Z,101643.34
2023-01-30T12:48:09.590Z,101641.66
2023-01-30T12:53:19.208Z,101651.78
2023-01-30T12:58:33.611Z,101649.94
2023-01-30T13:03:42.750Z,101655.78
2023-01-30T13:09:08.105Z,101653.22
2023-01-30T13:14:38.611Z,101658.25
2023-01-30T13:19:57.570Z,101668.28
2023-01-30T13:25:11.857Z,101656.19
2023-01-30T13:30:18.778Z,101673.69
2023-01-30T13:35:35.475Z,101668.50
2023-01-30T13:40:45.812Z,101676.84
2023-01-30T13:45:53.404Z,101681.81
2023-01-30T13:51:03.446Z,101674.91
2023-01-30T13:56:40.797Z,101677.06
2023-01-30T14:02:04.503Z,101679.13
2023-01-30T14:07:22.681Z,101669.53
2023-01-30T14:12:38.938Z,101683.88
2023-01-30T14:18:44.853Z,101676.28
2023-01-30T14:24:01.512Z,101665.84
2023-01-30T14:29:08.381Z,101685.88
2023-01-30T14:34:43.031Z,101675.44
2023-01-30T14:39:55.315Z,101681.03
2023-01-30T14:45:01.802Z,101669.50
2023-01-30T14:50:23.358Z,101683.63
2023-01-30T14:55:31.365Z,101670.91
2023-01-30T15:00:39.467Z,101674.09
2023-01-30T15:05:46.870Z,101677.47
2023-01-30T15:11:12.951Z,101673.31
2023-01-30T15:16:55.024Z,101683.47
2023-01-30T15:22:17.170Z,101675.19
2023-01-30T15:27:59.104Z,101674.25
2023-01-30T15:33:32.157Z,101676.19
2023-01-30T15:38:38.084Z,101677.25
2023-01-30T15:44:07.142Z,101679.19
2023-01-30T15:49:29.360Z,101684.47
2023-01-30T15:54:33.980Z,101693.00
2023-01-30T15:59:40.715Z,101703.31
2023-01-30T16:04:44.855Z,101699.19
2023-01-30T16:10:07.153Z,101678.84
2023-01-30T16:15:30.169Z,101685.88
2023-01-30T16:21:03.170Z,101646.69
2023-01-30T16:26:13.585Z,101711.78
2023-01-30T16:31:19.411Z,101708.50
2023-01-30T16:36:23.568Z,101713.69
2023-01-30T16:41:45.411Z,101711.16
2023-01-30T16:47:06.999Z,101635.91
2023-01-30T16:52:22.169Z,101728.47
2023-01-30T16:57:29.411Z,101728.66
2023-01-30T17:02:40.650Z,101735.59
2023-01-30T17:07:45.133Z,101729.84
2023-01-30T17:12:50.296Z,101735.84
2023-01-30T17:17:55.022Z,101736.06
2023-01-30T17:23:05.698Z,101741.25
2023-01-30T17:28:21.836Z,101743.09
2023-01-30T17:33:26.708Z,101747.28
2023-01-30T17:38:30.600Z,101759.34
2023-01-30T17:43:34.604Z,101760.22
2023-01-30T17:48:38.347Z,101765.31
2023-01-30T17:53:42.841Z,101740.56
2023-01-30T17:58:46.773Z,101761.97
2023-01-30T18:03:50.626Z,101767.88
2023-01-30T18:08:54.567Z,101779.69
2023-01-30T18:13:59.254Z,101770.41
2023-01-30T18:19:07.611Z,101762.72
2023-01-30T18:24:15.445Z,101774.41
2023-01-30T18:29:19.361Z,101768.25
2023-01-30T18:34:23.334Z,101780.91
2023-01-30T18:39:27.751Z,101773.13
2023-01-30T18:44:31.907Z,101776.50
2023-01-30T18:49:36.019Z,101772.22
2023-01-30T18:54:39.926Z,101761.94
2023-01-30T18:59:43.851Z,101772.09
2023-01-30T19:04:47.587Z,101771.13
2023-01-30T19:09:52.716Z,101775.34
2023-01-30T19:14:56.814Z,101762.53
2023-01-30T19:20:02.585Z,101769.44
2023-01-30T19:25:09.110Z,101763.53
2023-01-30T19:30:13.670Z,101778.00
2023-01-30T19:35:18.252Z,101778.88
2023-01-30T19:40:23.626Z,101778.84
2023-01-30T19:45:27.744Z,101772.69
2023-01-30T19:50:31.540Z,101783.91
2023-01-30T19:55:36.026Z,101785.53
2023-01-30T20:00:39.701Z,101780.47
2023-01-30T20:05:44.831Z,101780.38
2023-01-30T20:10:48.514Z,101767.72
2023-01-30T20:15:52.456Z,101777.97
2023-01-30T20:20:56.362Z,101775.50
2023-01-30T20:26:00.163Z,101766.28
2023-01-30T20:31:13.324Z,101777.38
2023-01-30T20:36:20.170Z,101772.31
2023-01-30T20:41:27.184Z,101775.75
2023-01-30T20:46:49.877Z,101776.59
2023-01-30T20:51:55.118Z,101796.94
2023-01-30T20:56:59.032Z,101778.28
2023-01-30T21:02:03.136Z,101787.72
2023-01-30T21:07:07.118Z,101781.78
2023-01-30T21:12:10.935Z,101783.50
2023-01-30T21:17:14.900Z,101785.94
2023-01-30T21:22:18.548Z,101782.56
2023-01-30T21:27:22.364Z,101780.06
2023-01-30T21:32:26.261Z,101782.66
2023-01-30T21:37:48.405Z,101717.72
2023-01-30T21:43:12.254Z,101780.06
2023-01-30T21:48:16.245Z,101793.59
2023-01-30T21:53:19.878Z,101784.19
2023-01-30T21:58:23.782Z,101785.03
2023-01-30T22:03:28.169Z,101779.88
2023-01-30T22:08:32.129Z,101773.06
2023-01-30T22:13:38.667Z,101773.91
2023-01-30T22:18:48.316Z,101773.03
2023-01-30T22:23:54.872Z,101787.44
2023-01-30T22:29:01.284Z,101774.56
2023-01-30T22:34:05.914Z,101765.06
2023-01-30T22:39:10.439Z,101794.06
2023-01-30T22:44:15.606Z,101788.13
2023-01-30T22:49:19.282Z,101777.91
2023-01-30T22:54:25.004Z,101773.75
2023-01-30T22:59:30.420Z,101779.66
2023-01-30T23:04:34.491Z,101772.81
2023-01-30T23:09:38.406Z,101771.13
2023-01-30T23:14:43.819Z,101770.16
2023-01-30T23:19:47.590Z,101768.44
2023-01-30T23:24:51.905Z,101768.34
2023-01-30T23:29:55.744Z,101763.34
2023-01-30T23:34:59.416Z,101762.53
2023-01-30T23:40:03.402Z,101768.44
2023-01-30T23:45:07.979Z,101765.97
2023-01-30T23:50:12.150Z,101759.97
2023-01-30T23:55:16.129Z,101756.38
